sensor_id;sensor_type;location;lat;lon;timestamp;temperature;humidity
9849;DHT22;4963;51.444;6.528;2023-04-01T00:01:45;10.20;99.90
9849;DHT22;4963;51.444;6.528;2023-04-01T00:04:12;10.20;99.90
9849;DHT22;4963;51.444;6.528;2023-04-01T00:06:40;10.10;99.90
9849;DHT22;4963;51.444;6.528;2023-04-01T00:09:07;10.20;99.90
9849;DHT22;4963;51.444;6.528;2023-04-01T00:11:34;10.20;99.90
9849;DHT22;4963;51.444;6.528;2023-04-01T00:14:00;10.20;99.90
9849;DHT22;4963;51.444;6.528;2023-04-01T00:16:27;10.20;99.90
9849;DHT22;4963;51.444;6.528;2023-04-01T00:18:54;10.10;99.90
9849;DHT22;4963;51.444;6.528;2023-04-01T00:21:21;10.30;99.90
9849;DHT22;4963;51.444;6.528;2023-04-01T00:23:50;10.30;99.90
9849;DHT22;4963;51.444;6.528;2023-04-01T00:26:18;10.10;99.90
9849;DHT22;4963;51.444;6.528;2023-04-01T00:28:47;10.20;99.90
9849;DHT22;4963;51.444;6.528;2023-04-01T00:31:14;10.40;99.90
9849;DHT22;4963;51.444;6.528;2023-04-01T00:33:41;10.80;99.90
9849;DHT22;4963;51.444;6.528;2023-04-01T00:36:09;10.30;99.90
9849;DHT22;4963;51.444;6.528;2023-04-01T00:38:36;10.40;99.90
9849;DHT22;4963;51.444;6.528;2023-04-01T00:41:05;10.20;99.90
9849;DHT22;4963;51.444;6.528;2023-04-01T00:43:33;10.20;99.90
9849;DHT22;4963;51.444;6.528;2023-04-01T00:46:00;10.20;99.90
9849;DHT22;4963;51.444;6.528;2023-04-01T00:48:30;10.10;99.90
9849;DHT22;4963;51.444;6.528;2023-04-01T00:51:00;10.10;99.90
9849;DHT22;4963;51.444;6.528;2023-04-01T00:53:29;10.20;99.90
9849;DHT22;4963;51.444;6.528;2023-04-01T00:56:00;10.30;99.90
9849;DHT22;4963;51.444;6.528;2023-04-01T00:58:32;10.10;99.90
9849;DHT22;4963;51.444;6.528;2023-04-01T01:01:00;10.10;99.90
9849;DHT22;4963;51.444;6.528;2023-04-01T01:03:27;10.00;99.90
9849;DHT22;4963;51.444;6.528;2023-04-01T01:06:11;10.10;99.90
9849;DHT22;4963;51.444;6.528;2023-04-01T01:08:55;10.10;99.90
9849;DHT22;4963;51.444;6.528;2023-04-01T01:11:31;10.00;99.90
9849;DHT22;4963;51.444;6.528;2023-04-01T01:14:09;10.10;99.90
9849;DHT22;4963;51.444;6.528;2023-04-01T01:16:42;10.20;99.90
9849;DHT22;4963;51.444;6.528;2023-04-01T01:19:26;10.10;99.90
9849;DHT22;4963;51.444;6.528;2023-04-01T01:22:09;10.10;99.90
9849;DHT22;4963;51.444;6.528;2023-04-01T01:25:09;10.10;99.90
9849;DHT22;4963;51.444;6.528;2023-04-01T01:27:41;10.10;99.90
9849;DHT22;4963;51.444;6.528;2023-04-01T01:30:25;10.10;99.90
9849;DHT22;4963;51.444;6.528;2023-04-01T01:33:18;10.10;99.90
9849;DHT22;4963;51.444;6.528;2023-04-01T01:35:52;10.10;99.90
9849;DHT22;4963;51.444;6.528;2023-04-01T01:38:23;10.20;99.90
9849;DHT22;4963;51.444;6.528;2023-04-01T01:40:52;10.00;99.90
9849;DHT22;4963;51.444;6.528;2023-04-01T01:43:22;10.10;99.90
9849;DHT22;4963;51.444;6.528;2023-04-01T01:45:54;10.00;99.90
9849;DHT22;4963;51.444;6.528;2023-04-01T01:48:22;10.00;99.90
9849;DHT22;4963;51.444;6.528;2023-04-01T01:50:52;10.10;99.90
9849;DHT22;4963;51.444;6.528;2023-04-01T01:53:19;10.10;99.90
9849;DHT22;4963;51.444;6.528;2023-04-01T01:55:47;10.10;99.90
9849;DHT22;4963;51.444;6.528;2023-04-01T01:58:17;10.20;99.90
9849;DHT22;4963;51.444;6.528;2023-04-01T02:00:50;10.30;99.90
9849;DHT22;4963;51.444;6.528;2023-04-01T02:03:20;10.20;99.90
9849;DHT22;4963;51.444;6.528;2023-04-01T02:05:48;10.10;99.90
9849;DHT22;4963;51.444;6.528;2023-04-01T02:08:21;10.40;99.90
9849;DHT22;4963;51.444;6.528;2023-04-01T02:10:55;10.10;99.90
9849;DHT22;4963;51.444;6.528;2023-04-01T02:13:26;10.20;99.90
9849;DHT22;4963;51.444;6.528;2023-04-01T02:15:59;10.20;99.90
9849;DHT22;4963;51.444;6.528;2023-04-01T02:18:28;10.10;99.90
9849;DHT22;4963;51.444;6.528;2023-04-01T02:20:57;10.10;99.90
9849;DHT22;4963;51.444;6.528;2023-04-01T02:23:28;10.00;99.90
9849;DHT22;4963;51.444;6.528;2023-04-01T02:25:55;10.10;99.90
9849;DHT22;4963;51.444;6.528;2023-04-01T02:28:23;10.10;99.90
9849;DHT22;4963;51.444;6.528;2023-04-01T02:30:51;10.00;99.90
9849;DHT22;4963;51.444;6.528;2023-04-01T02:33:19;10.10;99.90
9849;DHT22;4963;51.444;6.528;2023-04-01T02:35:46;10.20;99.90
9849;DHT22;4963;51.444;6.528;2023-04-01T02:38:13;10.00;99.90
9849;DHT22;4963;51.444;6.528;2023-04-01T02:40:47;10.00;99.90
9849;DHT22;4963;51.444;6.528;2023-04-01T02:43:15;10.00;99.90
9849;DHT22;4963;51.444;6.528;2023-04-01T02:45:43;10.00;99.90
9849;DHT22;4963;51.444;6.528;2023-04-01T02:48:09;10.10;99.90
9849;DHT22;4963;51.444;6.528;2023-04-01T02:50:38;10.00;99.90
9849;DHT22;4963;51.444;6.528;2023-04-01T02:53:05;10.20;99.90
9849;DHT22;4963;51.444;6.528;2023-04-01T02:55:34;9.90;99.90
9849;DHT22;4963;51.444;6.528;2023-04-01T02:58:03;9.90;99.90
9849;DHT22;4963;51.444;6.528;2023-04-01T03:00:30;9.80;99.90
9849;DHT22;4963;51.444;6.528;2023-04-01T03:02:57;9.90;99.90
9849;DHT22;4963;51.444;6.528;2023-04-01T03:05:24;10.00;99.90
9849;DHT22;4963;51.444;6.528;2023-04-01T03:07:51;9.90;99.90
9849;DHT22;4963;51.444;6.528;2023-04-01T03:10:18;9.90;99.90
9849;DHT22;4963;51.444;6.528;2023-04-01T03:12:44;10.00;99.90
9849;DHT22;4963;51.444;6.528;2023-04-01T03:15:13;10.10;99.90
9849;DHT22;4963;51.444;6.528;2023-04-01T03:17:41;10.00;99.90
9849;DHT22;4963;51.444;6.528;2023-04-01T03:20:09;10.10;99.90
9849;DHT22;4963;51.444;6.528;2023-04-01T03:22:37;10.00;99.90
9849;DHT22;4963;51.444;6.528;2023-04-01T03:25:04;10.00;99.90
9849;DHT22;4963;51.444;6.528;2023-04-01T03:27:33;10.10;99.90
9849;DHT22;4963;51.444;6.528;2023-04-01T03:29:59;10.00;99.90
9849;DHT22;4963;51.444;6.528;2023-04-01T03:32:28;10.00;99.90
9849;DHT22;4963;51.444;6.528;2023-04-01T03:34:54;10.30;99.90
9849;DHT22;4963;51.444;6.528;2023-04-01T03:37:22;10.00;99.90
9849;DHT22;4963;51.444;6.528;2023-04-01T03:39:49;10.00;99.90
9849;DHT22;4963;51.444;6.528;2023-04-01T03:42:15;10.20;99.90
9849;DHT22;4963;51.444;6.528;2023-04-01T03:44:45;10.00;99.90
9849;DHT22;4963;51.444;6.528;2023-04-01T03:47:12;10.00;99.90
9849;DHT22;4963;51.444;6.528;2023-04-01T03:49:40;10.00;99.90
9849;DHT22;4963;51.444;6.528;2023-04-01T03:52:09;10.10;99.90
9849;DHT22;4963;51.444;6.528;2023-04-01T03:54:36;10.00;99.90
9849;DHT22;4963;51.444;6.528;2023-04-01T03:57:03;10.00;99.90
9849;DHT22;4963;51.444;6.528;2023-04-01T03:59:30;10.10;99.90
9849;DHT22;4963;51.444;6.528;2023-04-01T04:01:57;10.00;99.90
9849;DHT22;4963;51.444;6.528;2023-04-01T04:04:23;9.90;99.90
9849;DHT22;4963;51.444;6.528;2023-04-01T04:06:53;10.10;99.90
9849;DHT22;4963;51.444;6.528;2023-04-01T04:09:20;10.00;99.90
9849;DHT22;4963;51.444;6.528;2023-04-01T04:11:48;10.00;99.90
9849;DHT22;4963;51.444;6.528;2023-04-01T04:14:15;10.00;99.90
9849;DHT22;4963;51.444;6.528;2023-04-01T04:16:42;10.00;99.90
9849;DHT22;4963;51.444;6.528;2023-04-01T04:19:09;9.90;99.90
9849;DHT22;4963;51.444;6.528;2023-04-01T04:21:36;10.00;99.90
9849;DHT22;4963;51.444;6.528;2023-04-01T04:24:05;10.00;99.90
9849;DHT22;4963;51.444;6.528;2023-04-01T04:26:32;10.00;99.90
9849;DHT22;4963;51.444;6.528;2023-04-01T04:28:59;10.40;99.90
9849;DHT22;4963;51.444;6.528;2023-04-01T04:31:26;10.00;99.90
9849;DHT22;4963;51.444;6.528;2023-04-01T04:33:53;10.00;99.90
9849;DHT22;4963;51.444;6.528;2023-04-01T04:36:21;10.10;99.90
9849;DHT22;4963;51.444;6.528;2023-04-01T04:38:48;10.00;99.90
9849;DHT22;4963;51.444;6.528;2023-04-01T04:41:17;9.90;99.90
9849;DHT22;4963;51.444;6.528;2023-04-01T04:43:50;10.10;99.90
9849;DHT22;4963;51.444;6.528;2023-04-01T04:46:18;10.00;99.90
9849;DHT22;4963;51.444;6.528;2023-04-01T04:48:45;10.00;99.90
9849;DHT22;4963;51.444;6.528;2023-04-01T04:51:15;10.00;99.90
9849;DHT22;4963;51.444;6.528;2023-04-01T04:53:42;9.90;99.90
9849;DHT22;4963;51.444;6.528;2023-04-01T04:56:10;9.90;99.90
9849;DHT22;4963;51.444;6.528;2023-04-01T04:58:38;9.90;99.90
9849;DHT22;4963;51.444;6.528;2023-04-01T05:01:07;10.00;99.90
9849;DHT22;4963;51.444;6.528;2023-04-01T05:03:34;9.90;99.90
9849;DHT22;4963;51.444;6.528;2023-04-01T05:06:01;10.20;99.90
9849;DHT22;4963;51.444;6.528;2023-04-01T05:08:28;9.80;99.90
9849;DHT22;4963;51.444;6.528;2023-04-01T05:10:54;10.00;99.90
9849;DHT22;4963;51.444;6.528;2023-04-01T05:13:21;10.00;99.90
9849;DHT22;4963;51.444;6.528;2023-04-01T05:15:50;10.00;99.90
9849;DHT22;4963;51.444;6.528;2023-04-01T05:18:17;9.90;99.90
9849;DHT22;4963;51.444;6.528;2023-04-01T05:20:47;9.90;99.90
9849;DHT22;4963;51.444;6.528;2023-04-01T05:23:15;9.90;99.90
9849;DHT22;4963;51.444;6.528;2023-04-01T05:25:42;9.90;99.90
9849;DHT22;4963;51.444;6.528;2023-04-01T05:28:10;10.00;99.90
9849;DHT22;4963;51.444;6.528;2023-04-01T05:30:39;10.00;99.90
9849;DHT22;4963;51.444;6.528;2023-04-01T05:33:08;9.90;99.90
9849;DHT22;4963;51.444;6.528;2023-04-01T05:35:36;9.90;99.90
9849;DHT22;4963;51.444;6.528;2023-04-01T05:38:03;10.00;99.90
9849;DHT22;4963;51.444;6.528;2023-04-01T05:40:30;10.00;99.90
9849;DHT22;4963;51.444;6.528;2023-04-01T05:42:58;10.10;99.90
9849;DHT22;4963;51.444;6.528;2023-04-01T05:45:25;10.10;99.90
9849;DHT22;4963;51.444;6.528;2023-04-01T05:47:52;10.00;99.90
9849;DHT22;4963;51.444;6.528;2023-04-01T05:50:23;10.00;99.90
9849;DHT22;4963;51.444;6.528;2023-04-01T05:52:52;10.20;99.90
9849;DHT22;4963;51.444;6.528;2023-04-01T05:55:19;9.80;99.90
9849;DHT22;4963;51.444;6.528;2023-04-01T05:57:46;9.90;99.90
9849;DHT22;4963;51.444;6.528;2023-04-01T06:00:15;10.20;99.90
9849;DHT22;4963;51.444;6.528;2023-04-01T06:02:42;9.90;99.90
9849;DHT22;4963;51.444;6.528;2023-04-01T06:05:15;10.60;99.90
9849;DHT22;4963;51.444;6.528;2023-04-01T06:07:45;10.00;99.90
9849;DHT22;4963;51.444;6.528;2023-04-01T06:10:14;10.00;99.90
9849;DHT22;4963;51.444;6.528;2023-04-01T06:12:53;10.00;99.90
9849;DHT22;4963;51.444;6.528;2023-04-01T06:15:38;10.10;99.90
9849;DHT22;4963;51.444;6.528;2023-04-01T06:18:37;10.00;99.90
9849;DHT22;4963;51.444;6.528;2023-04-01T06:21:21;9.90;99.90
9849;DHT22;4963;51.444;6.528;2023-04-01T06:24:02;10.00;99.90
9849;DHT22;4963;51.444;6.528;2023-04-01T06:26:34;9.90;99.90
9849;DHT22;4963;51.444;6.528;2023-04-01T06:32:36;10.00;99.90
9849;DHT22;4963;51.444;6.528;2023-04-01T06:35:24;10.00;99.90
9849;DHT22;4963;51.444;6.528;2023-04-01T06:44:11;10.40;99.90
9849;DHT22;4963;51.444;6.528;2023-04-01T06:46:45;10.30;99.90
9849;DHT22;4963;51.444;6.528;2023-04-01T07:28:35;10.30;99.90
9849;DHT22;4963;51.444;6.528;2023-04-01T07:31:11;10.20;99.90
9849;DHT22;4963;51.444;6.528;2023-04-01T07:33:48;10.20;99.90
9849;DHT22;4963;51.444;6.528;2023-04-01T07:36:21;10.20;99.90
9849;DHT22;4963;51.444;6.528;2023-04-01T07:38:59;10.20;99.90
9849;DHT22;4963;51.444;6.528;2023-04-01T07:41:32;10.20;99.90
9849;DHT22;4963;51.444;6.528;2023-04-01T07:44:10;10.20;99.90
9849;DHT22;4963;51.444;6.528;2023-04-01T07:46:51;10.30;99.90
9849;DHT22;4963;51.444;6.528;2023-04-01T07:49:24;10.20;99.90
9849;DHT22;4963;51.444;6.528;2023-04-01T07:51:57;10.30;99.90
9849;DHT22;4963;51.444;6.528;2023-04-01T07:54:34;10.30;99.90
9849;DHT22;4963;51.444;6.528;2023-04-01T07:57:08;10.30;99.90
9849;DHT22;4963;51.444;6.528;2023-04-01T07:59:45;10.40;99.90
9849;DHT22;4963;51.444;6.528;2023-04-01T08:02:26;10.40;99.90
9849;DHT22;4963;51.444;6.528;2023-04-01T08:05:00;10.30;99.90
9849;DHT22;4963;51.444;6.528;2023-04-01T08:07:38;10.40;99.90
9849;DHT22;4963;51.444;6.528;2023-04-01T08:10:12;10.40;99.90
9849;DHT22;4963;51.444;6.528;2023-04-01T08:12:48;10.30;99.90
9849;DHT22;4963;51.444;6.528;2023-04-01T08:15:23;10.30;99.90
9849;DHT22;4963;51.444;6.528;2023-04-01T08:18:09;10.30;99.90
9849;DHT22;4963;51.444;6.528;2023-04-01T08:20:41;10.30;99.90
9849;DHT22;4963;51.444;6.528;2023-04-01T08:23:13;10.30;99.90
9849;DHT22;4963;51.444;6.528;2023-04-01T08:25:44;10.30;99.90
9849;DHT22;4963;51.444;6.528;2023-04-01T08:28:17;10.40;99.90
9849;DHT22;4963;51.444;6.528;2023-04-01T08:30:52;10.40;99.90
9849;DHT22;4963;51.444;6.528;2023-04-01T08:33:23;10.40;99.90
9849;DHT22;4963;51.444;6.528;2023-04-01T08:35:56;10.40;99.90
9849;DHT22;4963;51.444;6.528;2023-04-01T08:38:28;10.40;99.90
9849;DHT22;4963;51.444;6.528;2023-04-01T08:47:12;10.50;99.90
9849;DHT22;4963;51.444;6.528;2023-04-01T08:50:04;10.50;99.90
9849;DHT22;4963;51.444;6.528;2023-04-01T08:52:37;10.60;99.90
9849;DHT22;4963;51.444;6.528;2023-04-01T08:55:22;10.60;99.90
9849;DHT22;4963;51.444;6.528;2023-04-01T08:58:14;10.60;99.90
9849;DHT22;4963;51.444;6.528;2023-04-01T09:00:47;10.70;99.90
9849;DHT22;4963;51.444;6.528;2023-04-01T09:03:37;10.70;99.90
9849;DHT22;4963;51.444;6.528;2023-04-01T09:06:37;10.70;99.90
9849;DHT22;4963;51.444;6.528;2023-04-01T09:12:35;10.70;99.90
9849;DHT22;4963;51.444;6.528;2023-04-01T09:18:49;10.80;99.90
9849;DHT22;4963;51.444;6.528;2023-04-01T09:21:29;10.80;99.90
9849;DHT22;4963;51.444;6.528;2023-04-01T09:24:41;10.80;99.90
9849;DHT22;4963;51.444;6.528;2023-04-01T09:27:18;10.80;99.90
9849;DHT22;4963;51.444;6.528;2023-04-01T09:30:00;10.80;99.90
9849;DHT22;4963;51.444;6.528;2023-04-01T09:32:46;10.80;99.90
9849;DHT22;4963;51.444;6.528;2023-04-01T09:35:24;10.80;99.90
9849;DHT22;4963;51.444;6.528;2023-04-01T09:38:01;10.80;99.90
9849;DHT22;4963;51.444;6.528;2023-04-01T09:40:46;10.80;99.90
9849;DHT22;4963;51.444;6.528;2023-04-01T09:43:27;10.90;99.90
9849;DHT22;4963;51.444;6.528;2023-04-01T09:46:16;10.90;99.90
9849;DHT22;4963;51.444;6.528;2023-04-01T09:49:06;10.90;99.90
9849;DHT22;4963;51.444;6.528;2023-04-01T09:51:41;11.10;99.90
9849;DHT22;4963;51.444;6.528;2023-04-01T09:54:20;10.90;99.90
9849;DHT22;4963;51.444;6.528;2023-04-01T09:57:18;11.20;99.90
9849;DHT22;4963;51.444;6.528;2023-04-01T10:00:20;11.00;99.90
9849;DHT22;4963;51.444;6.528;2023-04-01T10:03:22;11.00;99.90
9849;DHT22;4963;51.444;6.528;2023-04-01T10:28:16;11.00;99.90
9849;DHT22;4963;51.444;6.528;2023-04-01T10:31:20;10.90;99.90
9849;DHT22;4963;51.444;6.528;2023-04-01T10:36:53;10.90;99.90
9849;DHT22;4963;51.444;6.528;2023-04-01T10:42:51;10.90;99.90
9849;DHT22;4963;51.444;6.528;2023-04-01T10:45:38;11.00;99.90
9849;DHT22;4963;51.444;6.528;2023-04-01T10:48:21;11.00;99.90
9849;DHT22;4963;51.444;6.528;2023-04-01T10:51:09;11.00;99.90
9849;DHT22;4963;51.444;6.528;2023-04-01T10:53:46;11.00;99.90
9849;DHT22;4963;51.444;6.528;2023-04-01T10:56:39;11.10;99.90
9849;DHT22;4963;51.444;6.528;2023-04-01T10:59:45;11.00;99.90
9849;DHT22;4963;51.444;6.528;2023-04-01T11:02:39;11.00;99.90
9849;DHT22;4963;51.444;6.528;2023-04-01T11:05:46;11.10;99.90
9849;DHT22;4963;51.444;6.528;2023-04-01T11:08:55;11.10;99.90
9849;DHT22;4963;51.444;6.528;2023-04-01T11:11:54;11.10;99.90
9849;DHT22;4963;51.444;6.528;2023-04-01T11:17:50;11.10;99.90
9849;DHT22;4963;51.444;6.528;2023-04-01T11:20:55;11.10;99.90
9849;DHT22;4963;51.444;6.528;2023-04-01T11:23:43;11.10;99.90
9849;DHT22;4963;51.444;6.528;2023-04-01T11:26:20;11.10;99.90
9849;DHT22;4963;51.444;6.528;2023-04-01T11:32:07;11.10;99.90
9849;DHT22;4963;51.444;6.528;2023-04-01T11:34:50;11.10;99.90
9849;DHT22;4963;51.444;6.528;2023-04-01T11:37:29;11.10;99.90
9849;DHT22;4963;51.444;6.528;2023-04-01T11:40:08;11.10;99.90
9849;DHT22;4963;51.444;6.528;2023-04-01T11:42:41;11.10;99.90
9849;DHT22;4963;51.444;6.528;2023-04-01T11:45:24;11.10;99.90
9849;DHT22;4963;51.444;6.528;2023-04-01T11:48:19;11.10;99.90
9849;DHT22;4963;51.444;6.528;2023-04-01T11:51:26;11.10;99.90
9849;DHT22;4963;51.444;6.528;2023-04-01T11:54:04;11.10;99.90
9849;DHT22;4963;51.444;6.528;2023-04-01T11:56:43;11.10;99.90
9849;DHT22;4963;51.444;6.528;2023-04-01T12:02:16;11.10;99.90
9849;DHT22;4963;51.444;6.528;2023-04-01T12:04:58;11.20;99.90
9849;DHT22;4963;51.444;6.528;2023-04-01T12:07:42;11.20;99.90
9849;DHT22;4963;51.444;6.528;2023-04-01T12:10:17;11.30;99.90
9849;DHT22;4963;51.444;6.528;2023-04-01T12:12:52;11.40;99.90
9849;DHT22;4963;51.444;6.528;2023-04-01T12:15:29;11.30;99.90
9849;DHT22;4963;51.444;6.528;2023-04-01T12:18:05;11.40;99.90
9849;DHT22;4963;51.444;6.528;2023-04-01T12:20:46;11.40;99.90
9849;DHT22;4963;51.444;6.528;2023-04-01T12:23:33;11.50;99.90
9849;DHT22;4963;51.444;6.528;2023-04-01T12:26:25;11.50;99.90
9849;DHT22;4963;51.444;6.528;2023-04-01T12:29:07;11.20;99.90
9849;DHT22;4963;51.444;6.528;2023-04-01T12:31:51;11.40;99.90
9849;DHT22;4963;51.444;6.528;2023-04-01T12:34:33;11.50;99.90
9849;DHT22;4963;51.444;6.528;2023-04-01T12:37:12;11.40;99.90
9849;DHT22;4963;51.444;6.528;2023-04-01T12:39:56;11.40;99.90
9849;DHT22;4963;51.444;6.528;2023-04-01T12:42:41;11.40;99.90
9849;DHT22;4963;51.444;6.528;2023-04-01T12:45:28;11.40;99.90
9849;DHT22;4963;51.444;6.528;2023-04-01T12:54:41;11.40;99.90
9849;DHT22;4963;51.444;6.528;2023-04-01T12:57:22;11.40;99.90
9849;DHT22;4963;51.444;6.528;2023-04-01T13:00:04;11.30;99.90
9849;DHT22;4963;51.444;6.528;2023-04-01T13:02:45;11.30;99.90
9849;DHT22;4963;51.444;6.528;2023-04-01T13:05:24;11.30;99.90
9849;DHT22;4963;51.444;6.528;2023-04-01T13:08:12;11.40;99.90
9849;DHT22;4963;51.444;6.528;2023-04-01T13:10:58;11.30;99.90
9849;DHT22;4963;51.444;6.528;2023-04-01T13:13:46;11.30;99.90
9849;DHT22;4963;51.444;6.528;2023-04-01T13:16:16;11.30;99.90
9849;DHT22;4963;51.444;6.528;2023-04-01T13:18:55;11.30;99.90
9849;DHT22;4963;51.444;6.528;2023-04-01T13:21:34;11.30;99.90
9849;DHT22;4963;51.444;6.528;2023-04-01T13:24:13;11.30;99.90
9849;DHT22;4963;51.444;6.528;2023-04-01T13:26:53;11.20;99.90
9849;DHT22;4963;51.444;6.528;2023-04-01T13:29:27;11.20;99.90
9849;DHT22;4963;51.444;6.528;2023-04-01T13:32:06;11.20;99.90
9849;DHT22;4963;51.444;6.528;2023-04-01T13:34:48;11.20;99.90
9849;DHT22;4963;51.444;6.528;2023-04-01T13:37:30;11.20;99.90
9849;DHT22;4963;51.444;6.528;2023-04-01T13:40:19;11.20;99.90
9849;DHT22;4963;51.444;6.528;2023-04-01T13:42:53;11.20;99.90
9849;DHT22;4963;51.444;6.528;2023-04-01T13:45:22;11.20;99.90
9849;DHT22;4963;51.444;6.528;2023-04-01T13:50:52;11.30;99.90
9849;DHT22;4963;51.444;6.528;2023-04-01T13:56:42;11.20;99.90
9849;DHT22;4963;51.444;6.528;2023-04-01T14:02:30;11.20;99.90
9849;DHT22;4963;51.444;6.528;2023-04-01T14:08:05;11.40;99.90
9849;DHT22;4963;51.444;6.528;2023-04-01T14:10:39;11.20;99.90
9849;DHT22;4963;51.444;6.528;2023-04-01T14:13:12;11.20;99.90
9849;DHT22;4963;51.444;6.528;2023-04-01T14:15:56;11.20;99.90
9849;DHT22;4963;51.444;6.528;2023-04-01T14:18:47;11.20;99.90
9849;DHT22;4963;51.444;6.528;2023-04-01T14:21:26;11.10;99.90
9849;DHT22;4963;51.444;6.528;2023-04-01T14:27:16;11.20;99.90
9849;DHT22;4963;51.444;6.528;2023-04-01T14:29:58;11.20;99.90
9849;DHT22;4963;51.444;6.528;2023-04-01T14:32:34;11.20;99.90
9849;DHT22;4963;51.444;6.528;2023-04-01T14:35:19;11.20;99.90
9849;DHT22;4963;51.444;6.528;2023-04-01T14:40:55;11.20;99.90
9849;DHT22;4963;51.444;6.528;2023-04-01T14:49:21;11.20;99.90
9849;DHT22;4963;51.444;6.528;2023-04-01T14:51:49;11.30;99.90
9849;DHT22;4963;51.444;6.528;2023-04-01T14:54:21;11.20;99.90
9849;DHT22;4963;51.444;6.528;2023-04-01T14:57:04;11.20;99.90
9849;DHT22;4963;51.444;6.528;2023-04-01T14:59:31;11.20;99.90
9849;DHT22;4963;51.444;6.528;2023-04-01T15:02:01;11.20;99.90
9849;DHT22;4963;51.444;6.528;2023-04-01T15:04:50;11.20;99.90
9849;DHT22;4963;51.444;6.528;2023-04-01T15:07:52;11.20;99.90
9849;DHT22;4963;51.444;6.528;2023-04-01T15:10:43;11.20;99.90
9849;DHT22;4963;51.444;6.528;2023-04-01T15:13:20;11.20;99.90
9849;DHT22;4963;51.444;6.528;2023-04-01T15:16:07;11.20;99.90
9849;DHT22;4963;51.444;6.528;2023-04-01T15:18:44;11.20;99.90
9849;DHT22;4963;51.444;6.528;2023-04-01T15:24:23;11.30;99.90
9849;DHT22;4963;51.444;6.528;2023-04-01T15:27:11;11.30;99.90
9849;DHT22;4963;51.444;6.528;2023-04-01T15:30:06;11.30;99.90
9849;DHT22;4963;51.444;6.528;2023-04-01T15:32:49;11.30;99.90
9849;DHT22;4963;51.444;6.528;2023-04-01T15:35:28;11.40;99.90
9849;DHT22;4963;51.444;6.528;2023-04-01T15:38:05;11.40;99.90
9849;DHT22;4963;51.444;6.528;2023-04-01T15:40:42;11.50;99.90
9849;DHT22;4963;51.444;6.528;2023-04-01T15:43:21;11.40;99.90
9849;DHT22;4963;51.444;6.528;2023-04-01T15:45:58;11.40;99.90
9849;DHT22;4963;51.444;6.528;2023-04-01T15:48:34;11.40;99.90
9849;DHT22;4963;51.444;6.528;2023-04-01T15:51:19;11.40;99.90
9849;DHT22;4963;51.444;6.528;2023-04-01T15:57:03;11.40;99.90
9849;DHT22;4963;51.444;6.528;2023-04-01T15:59:51;11.40;99.90
9849;DHT22;4963;51.444;6.528;2023-04-01T16:02:24;11.40;99.90
9849;DHT22;4963;51.444;6.528;2023-04-01T16:04:58;11.40;99.90
9849;DHT22;4963;51.444;6.528;2023-04-01T16:07:48;11.40;99.90
9849;DHT22;4963;51.444;6.528;2023-04-01T16:10:37;11.40;99.90
9849;DHT22;4963;51.444;6.528;2023-04-01T16:13:23;11.40;99.90
9849;DHT22;4963;51.444;6.528;2023-04-01T16:15:57;11.40;99.90
9849;DHT22;4963;51.444;6.528;2023-04-01T16:18:39;11.30;99.90
9849;DHT22;4963;51.444;6.528;2023-04-01T16:21:19;11.40;99.90
9849;DHT22;4963;51.444;6.528;2023-04-01T16:23:50;11.40;99.90
9849;DHT22;4963;51.444;6.528;2023-04-01T16:26:24;11.30;99.90
9849;DHT22;4963;51.444;6.528;2023-04-01T16:28:59;11.30;99.90
9849;DHT22;4963;51.444;6.528;2023-04-01T16:31:35;11.30;99.90
9849;DHT22;4963;51.444;6.528;2023-04-01T16:34:08;11.30;99.90
9849;DHT22;4963;51.444;6.528;2023-04-01T16:36:42;11.30;99.90
9849;DHT22;4963;51.444;6.528;2023-04-01T16:39:22;11.30;99.90
9849;DHT22;4963;51.444;6.528;2023-04-01T16:42:08;11.20;99.90
9849;DHT22;4963;51.444;6.528;2023-04-01T16:44:48;11.30;99.90
9849;DHT22;4963;51.444;6.528;2023-04-01T16:47:18;11.20;99.90
9849;DHT22;4963;51.444;6.528;2023-04-01T16:49:50;11.20;99.90
9849;DHT22;4963;51.444;6.528;2023-04-01T16:52:34;11.20;99.90
9849;DHT22;4963;51.444;6.528;2023-04-01T16:55:04;11.20;99.90
9849;DHT22;4963;51.444;6.528;2023-04-01T16:57:49;11.20;99.90
9849;DHT22;4963;51.444;6.528;2023-04-01T17:00:24;11.20;99.90
9849;DHT22;4963;51.444;6.528;2023-04-01T17:02:58;11.20;99.90
9849;DHT22;4963;51.444;6.528;2023-04-01T17:05:40;11.20;99.90
9849;DHT22;4963;51.444;6.528;2023-04-01T17:08:14;11.10;99.90
9849;DHT22;4963;51.444;6.528;2023-04-01T17:10:51;11.20;99.90
9849;DHT22;4963;51.444;6.528;2023-04-01T17:13:34;11.20;99.90
9849;DHT22;4963;51.444;6.528;2023-04-01T17:16:20;11.10;99.90
9849;DHT22;4963;51.444;6.528;2023-04-01T17:18:55;11.10;99.90
9849;DHT22;4963;51.444;6.528;2023-04-01T17:21:31;11.20;99.90
9849;DHT22;4963;51.444;6.528;2023-04-01T17:24:05;11.20;99.90
9849;DHT22;4963;51.444;6.528;2023-04-01T17:26:38;11.10;99.90
9849;DHT22;4963;51.444;6.528;2023-04-01T17:29:15;11.10;99.90
9849;DHT22;4963;51.444;6.528;2023-04-01T17:31:52;11.20;99.90
9849;DHT22;4963;51.444;6.528;2023-04-01T17:34:35;11.10;99.90
9849;DHT22;4963;51.444;6.528;2023-04-01T17:37:15;11.10;99.90
9849;DHT22;4963;51.444;6.528;2023-04-01T17:40:14;11.20;99.90
9849;DHT22;4963;51.444;6.528;2023-04-01T17:42:48;11.20;99.90
9849;DHT22;4963;51.444;6.528;2023-04-01T17:45:22;11.10;99.90
9849;DHT22;4963;51.444;6.528;2023-04-01T17:48:01;11.10;99.90
9849;DHT22;4963;51.444;6.528;2023-04-01T17:50:43;11.10;99.90
9849;DHT22;4963;51.444;6.528;2023-04-01T17:53:23;11.10;99.90
9849;DHT22;4963;51.444;6.528;2023-04-01T17:56:11;11.10;99.90
9849;DHT22;4963;51.444;6.528;2023-04-01T17:58:45;11.10;99.90
9849;DHT22;4963;51.444;6.528;2023-04-01T18:01:20;11.10;99.90
9849;DHT22;4963;51.444;6.528;2023-04-01T18:04:07;11.10;99.90
9849;DHT22;4963;51.444;6.528;2023-04-01T18:06:36;11.10;99.90
9849;DHT22;4963;51.444;6.528;2023-04-01T18:09:15;11.10;99.90
9849;DHT22;4963;51.444;6.528;2023-04-01T18:11:54;11.10;99.90
9849;DHT22;4963;51.444;6.528;2023-04-01T18:14:41;11.10;99.90
9849;DHT22;4963;51.444;6.528;2023-04-01T18:17:21;11.10;99.90
9849;DHT22;4963;51.444;6.528;2023-04-01T18:20:02;11.00;99.90
9849;DHT22;4963;51.444;6.528;2023-04-01T18:22:38;11.00;99.90
9849;DHT22;4963;51.444;6.528;2023-04-01T18:25:16;11.00;99.90
9849;DHT22;4963;51.444;6.528;2023-04-01T18:27:47;11.00;99.90
9849;DHT22;4963;51.444;6.528;2023-04-01T18:30:17;11.00;99.90
9849;DHT22;4963;51.444;6.528;2023-04-01T18:32:50;10.90;99.90
9849;DHT22;4963;51.444;6.528;2023-04-01T18:35:27;10.90;99.90
9849;DHT22;4963;51.444;6.528;2023-04-01T18:37:59;10.90;99.90
9849;DHT22;4963;51.444;6.528;2023-04-01T18:40:32;11.00;99.90
9849;DHT22;4963;51.444;6.528;2023-04-01T18:43:09;11.00;99.90
9849;DHT22;4963;51.444;6.528;2023-04-01T18:45:43;11.00;99.90
9849;DHT22;4963;51.444;6.528;2023-04-01T18:48:30;11.00;99.90
9849;DHT22;4963;51.444;6.528;2023-04-01T18:51:08;10.90;99.90
9849;DHT22;4963;51.444;6.528;2023-04-01T18:53:39;10.80;99.90
9849;DHT22;4963;51.444;6.528;2023-04-01T18:56:10;10.80;99.90
9849;DHT22;4963;51.444;6.528;2023-04-01T18:58:46;10.80;99.90
9849;DHT22;4963;51.444;6.528;2023-04-01T19:01:19;10.80;99.90
9849;DHT22;4963;51.444;6.528;2023-04-01T19:04:12;10.80;99.90
9849;DHT22;4963;51.444;6.528;2023-04-01T19:06:46;10.70;99.90
9849;DHT22;4963;51.444;6.528;2023-04-01T19:09:26;10.70;99.90
9849;DHT22;4963;51.444;6.528;2023-04-01T19:12:09;10.60;99.90
9849;DHT22;4963;51.444;6.528;2023-04-01T19:14:53;10.50;99.90
9849;DHT22;4963;51.444;6.528;2023-04-01T19:17:28;10.50;99.90